Monatstabelle

Bitte in den Auwahlmenüs den gewünschte Zeiraum wählen und die Schaltfläche "Anfrage absenden" betätigen. Beginn der Aufzeichnung ist 2007 - Dezember. Vor diesem Zeitraum sind keine Daten verfügbar.

2017 - Oktober

 

Datum Temperatur (°C) Luftdruck (hPa) Luftfeuchte (%) Regen
(l/m²)
Wind (km/h)
avg: min: max: avg: min: max: avg: min: max: avg: max:
01.10.2017 13,3 10,7 19,7 1020,4 1017,1 1021,6 56 41 64 0,0 8,8 14,6
02.10.2017 14,1 9,1 19,3 1018,7 1015,5 1021,8 59 44 69 0,0 4,7 15,6
03.10.2017 11,9 9,1 15,7 1016,7 1011,1 1021,6 83 67 89 5,8 0,2 1,9
04.10.2017 12,1 6,1 21,5 1019,8 1017,0 1023,8 76 50 91 0,0 2,0 9,0
05.10.2017 17,8 9,0 24,1 1008,8 1003,8 1017,0 58 43 88 0,1 7,3 15,0
06.10.2017 9,4 9,2 16,0 1010,2 1009,2 1013,2 70 45 80 0,0 0,0 22,0
08.10.2017 11,4 11,3 12,0 1013,3 1013,2 1013,4 72 70 72 1,4 3,7 6,0
09.10.2017 10,2 7,6 14,7 1016,2 1013,2 1017,7 76 59 85 0,5 2,5 12,7
10.10.2017 11,1 7,5 15,9 1017,0 1015,6 1018,2 78 59 88 1,4 1,8 4,3
11.10.2017 13,3 9,0 22,5 1018,4 1017,2 1020,9 75 49 92 0,0 2,2 6,6
12.10.2017 15,8 7,0 24,3 1020,1 1017,4 1022,0 66 38 92 0,0 4,7 15,0
13.10.2017 13,1 10,2 19,1 1023,1 1021,8 1024,4 73 54 85 0,0 2,4 8,7
14.10.2017 12,9 7,8 21,3 1025,8 1024,1 1027,3 76 52 91 0,0 1,5 12,1
15.10.2017 15,7 8,0 24,4 1024,9 1023,8 1027,1 75 55 94 0,0 1,1 6,1
16.10.2017 15,4 8,4 23,5 1024,2 1023,2 1026,0 80 62 94 0,0 2,4 6,6
17.10.2017 14,5 8,0 22,8 1020,5 1017,9 1024,3 80 63 94 0,0 2,2 11,3
18.10.2017 12,3 9,7 16,8 1013,8 1012,9 1017,9 87 70 89 0,0 2,2 9,8
19.10.2017 11,6 5,4 17,7 1014,7 1013,0 1016,1 84 72 93 0,0 1,4 6,3
20.10.2017 9,8 5,6 12,2 1014,9 1013,8 1015,9 91 85 93 0,0 1,0 5,5
21.10.2017 10,5 6,1 12,5 1014,9 1014,0 1016,4 91 90 94 0,1 1,9 6,9
22.10.2017 9,0 7,9 11,9 1012,7 1011,4 1014,7 90 76 94 5,5 3,4 11,6
23.10.2017 9,1 8,2 9,9 1011,9 1009,2 1015,6 79 74 86 0,1 20,3 27,8
24.10.2017 10,2 8,4 11,9 1020,8 1015,6 1022,6 79 71 86 0,3 9,7 23,0
25.10.2017 10,7 5,4 19,6 1021,3 1020,2 1022,6 78 58 90 0,0 1,7 9,2
26.10.2017 11,9 7,2 19,7 1020,4 1018,1 1023,1 83 68 90 0,0 1,3 7,1
27.10.2017 9,5 7,3 13,5 1015,9 1011,1 1018,1 82 71 90 6,4 8,4 26,1
28.10.2017 10,7 8,8 12,7 1012,6 1008,8 1018,4 60 49 73 0,0 10,9 19,0
29.10.2017 9,2 4,1 14,8 1001,8 993,4 1008,9 71 52 83 3,2 12,2 31,7
30.10.2017 6,3 3,9 8,3 1017,2 1008,6 1020,8 69 61 83 1,1 11,9 25,4
31.10.2017 6,3 1,8 10,7 1021,8 1020,2 1022,8 69 56 84 0,0 5,3 19,2
avg. 11,6 1017,1 75   ---
  Summe Regen: 25,9  
 
Min-Datum 31.10.2017 29.10.2017 12.10.2017 --- ---
Min-Zeit 23:56 11:18 14:40 --- ---
Minimum 1,8 993,4 38 --- ---
 

Max-Datum

15.10.2017 14.10.2017 15.10.2017 27.10.2017 29.10.2017
Max-Zeit 14:30 11:18 09:14 10:08 22:20
Maximum 24,4 1027,3 94 6,4 31,7
 

 

  Letztes Jahr
gleiches Monat
Eistage max < 0°C 0 0
Frosttage min < 0°C 0 0
Sommertage max >=25°C 0 1
Heiße Tage max >=30°C 0 0

 

<<< nach oben >>>